sensor_id;sensor_type;location;lat;lon;timestamp;P1;durP1;ratioP1;P2;durP2;ratioP2
9524;SDS011;15940;48.734;9.112;2023-05-21T00:02:02;13.20;;;12.00;;
9524;SDS011;15940;48.734;9.112;2023-05-21T00:04:29;14.60;;;13.20;;
9524;SDS011;15940;48.734;9.112;2023-05-21T00:06:57;13.37;;;12.10;;
9524;SDS011;15940;48.734;9.112;2023-05-21T00:09:26;13.73;;;12.30;;
9524;SDS011;15940;48.734;9.112;2023-05-21T00:11:53;14.20;;;12.90;;
9524;SDS011;15940;48.734;9.112;2023-05-21T00:14:20;14.23;;;12.50;;
9524;SDS011;15940;48.734;9.112;2023-05-21T00:16:46;13.27;;;11.97;;
9524;SDS011;15940;48.734;9.112;2023-05-21T00:19:13;15.20;;;13.70;;
9524;SDS011;15940;48.734;9.112;2023-05-21T00:21:40;14.70;;;13.30;;
9524;SDS011;15940;48.734;9.112;2023-05-21T00:24:10;15.53;;;13.87;;
9524;SDS011;15940;48.734;9.112;2023-05-21T00:26:38;14.10;;;12.77;;
9524;SDS011;15940;48.734;9.112;2023-05-21T00:29:05;14.10;;;12.70;;
9524;SDS011;15940;48.734;9.112;2023-05-21T00:31:32;14.97;;;13.47;;
9524;SDS011;15940;48.734;9.112;2023-05-21T00:33:59;15.03;;;13.50;;
9524;SDS011;15940;48.734;9.112;2023-05-21T00:36:26;18.03;;;13.53;;
9524;SDS011;15940;48.734;9.112;2023-05-21T00:38:54;15.03;;;13.63;;
9524;SDS011;15940;48.734;9.112;2023-05-21T00:41:21;15.73;;;14.20;;
9524;SDS011;15940;48.734;9.112;2023-05-21T00:43:51;15.90;;;14.30;;
9524;SDS011;15940;48.734;9.112;2023-05-21T00:46:18;16.00;;;14.43;;
9524;SDS011;15940;48.734;9.112;2023-05-21T00:48:46;15.53;;;14.03;;
9524;SDS011;15940;48.734;9.112;2023-05-21T00:51:14;16.93;;;15.13;;
9524;SDS011;15940;48.734;9.112;2023-05-21T00:53:42;16.77;;;15.07;;
9524;SDS011;15940;48.734;9.112;2023-05-21T00:56:10;17.07;;;15.37;;
9524;SDS011;15940;48.734;9.112;2023-05-21T00:58:37;16.27;;;14.77;;
9524;SDS011;15940;48.734;9.112;2023-05-21T01:01:07;17.37;;;14.50;;
9524;SDS011;15940;48.734;9.112;2023-05-21T01:03:37;16.30;;;14.77;;
9524;SDS011;15940;48.734;9.112;2023-05-21T01:08:34;16.50;;;14.80;;
9524;SDS011;15940;48.734;9.112;2023-05-21T01:11:02;16.80;;;15.07;;
9524;SDS011;15940;48.734;9.112;2023-05-21T01:13:31;16.97;;;15.30;;
9524;SDS011;15940;48.734;9.112;2023-05-21T01:16:03;17.47;;;15.63;;
9524;SDS011;15940;48.734;9.112;2023-05-21T01:18:32;16.90;;;15.07;;
9524;SDS011;15940;48.734;9.112;2023-05-21T01:21:01;17.23;;;15.00;;
9524;SDS011;15940;48.734;9.112;2023-05-21T01:23:30;17.43;;;15.73;;
9524;SDS011;15940;48.734;9.112;2023-05-21T01:25:58;17.70;;;16.00;;
9524;SDS011;15940;48.734;9.112;2023-05-21T01:28:24;17.73;;;15.43;;
9524;SDS011;15940;48.734;9.112;2023-05-21T01:30:53;16.97;;;15.30;;
9524;SDS011;15940;48.734;9.112;2023-05-21T01:33:24;18.17;;;15.43;;
9524;SDS011;15940;48.734;9.112;2023-05-21T01:35:59;17.90;;;16.13;;
9524;SDS011;15940;48.734;9.112;2023-05-21T01:38:36;17.13;;;15.43;;
9524;SDS011;15940;48.734;9.112;2023-05-21T01:41:09;17.90;;;16.10;;
9524;SDS011;15940;48.734;9.112;2023-05-21T01:43:38;18.10;;;16.20;;
9524;SDS011;15940;48.734;9.112;2023-05-21T01:46:09;18.33;;;16.47;;
9524;SDS011;15940;48.734;9.112;2023-05-21T01:50:55;17.73;;;15.93;;
9524;SDS011;15940;48.734;9.112;2023-05-21T01:53:26;17.47;;;15.63;;
9524;SDS011;15940;48.734;9.112;2023-05-21T01:55:53;18.90;;;16.70;;
9524;SDS011;15940;48.734;9.112;2023-05-21T01:58:20;18.50;;;16.50;;
9524;SDS011;15940;48.734;9.112;2023-05-21T02:00:48;17.97;;;16.27;;
9524;SDS011;15940;48.734;9.112;2023-05-21T02:03:16;18.90;;;16.73;;
9524;SDS011;15940;48.734;9.112;2023-05-21T02:05:45;18.43;;;16.47;;
9524;SDS011;15940;48.734;9.112;2023-05-21T02:08:13;17.60;;;15.87;;
9524;SDS011;15940;48.734;9.112;2023-05-21T02:10:40;17.63;;;15.83;;
9524;SDS011;15940;48.734;9.112;2023-05-21T02:13:07;18.43;;;16.53;;
9524;SDS011;15940;48.734;9.112;2023-05-21T02:15:34;19.20;;;15.20;;
9524;SDS011;15940;48.734;9.112;2023-05-21T02:18:02;18.17;;;16.27;;
9524;SDS011;15940;48.734;9.112;2023-05-21T02:20:29;18.20;;;16.50;;
9524;SDS011;15940;48.734;9.112;2023-05-21T02:22:57;22.27;;;16.87;;
9524;SDS011;15940;48.734;9.112;2023-05-21T02:25:25;18.13;;;16.23;;
9524;SDS011;15940;48.734;9.112;2023-05-21T02:30:17;18.83;;;16.83;;
9524;SDS011;15940;48.734;9.112;2023-05-21T02:32:44;18.10;;;16.33;;
9524;SDS011;15940;48.734;9.112;2023-05-21T02:35:12;18.37;;;16.47;;
9524;SDS011;15940;48.734;9.112;2023-05-21T02:40:03;18.03;;;16.23;;
9524;SDS011;15940;48.734;9.112;2023-05-21T02:42:31;17.50;;;15.70;;
9524;SDS011;15940;48.734;9.112;2023-05-21T02:45:00;18.63;;;16.73;;
9524;SDS011;15940;48.734;9.112;2023-05-21T02:47:27;18.80;;;16.70;;
9524;SDS011;15940;48.734;9.112;2023-05-21T02:49:54;18.93;;;16.93;;
9524;SDS011;15940;48.734;9.112;2023-05-21T02:52:25;17.13;;;15.47;;
9524;SDS011;15940;48.734;9.112;2023-05-21T02:54:52;18.43;;;16.50;;
9524;SDS011;15940;48.734;9.112;2023-05-21T02:57:20;18.60;;;16.63;;
9524;SDS011;15940;48.734;9.112;2023-05-21T02:59:47;18.57;;;16.60;;
9524;SDS011;15940;48.734;9.112;2023-05-21T03:02:14;18.73;;;16.83;;
9524;SDS011;15940;48.734;9.112;2023-05-21T03:04:41;18.60;;;16.63;;
9524;SDS011;15940;48.734;9.112;2023-05-21T03:07:11;19.20;;;17.27;;
9524;SDS011;15940;48.734;9.112;2023-05-21T03:09:39;17.97;;;16.17;;
9524;SDS011;15940;48.734;9.112;2023-05-21T03:12:07;18.63;;;16.80;;
9524;SDS011;15940;48.734;9.112;2023-05-21T03:16:56;21.07;;;17.57;;
9524;SDS011;15940;48.734;9.112;2023-05-21T03:19:23;18.17;;;16.47;;
9524;SDS011;15940;48.734;9.112;2023-05-21T03:21:50;18.63;;;16.80;;
9524;SDS011;15940;48.734;9.112;2023-05-21T03:24:18;19.97;;;17.73;;
9524;SDS011;15940;48.734;9.112;2023-05-21T03:26:45;18.43;;;16.60;;
9524;SDS011;15940;48.734;9.112;2023-05-21T03:29:14;19.27;;;17.27;;
9524;SDS011;15940;48.734;9.112;2023-05-21T03:31:41;20.07;;;17.90;;
9524;SDS011;15940;48.734;9.112;2023-05-21T03:34:09;19.53;;;17.53;;
9524;SDS011;15940;48.734;9.112;2023-05-21T03:36:36;19.13;;;17.10;;
9524;SDS011;15940;48.734;9.112;2023-05-21T03:39:03;19.30;;;17.23;;
9524;SDS011;15940;48.734;9.112;2023-05-21T03:41:31;19.07;;;17.17;;
9524;SDS011;15940;48.734;9.112;2023-05-21T03:43:58;18.67;;;16.80;;
9524;SDS011;15940;48.734;9.112;2023-05-21T03:46:25;17.87;;;16.07;;
9524;SDS011;15940;48.734;9.112;2023-05-21T03:48:52;18.57;;;16.77;;
9524;SDS011;15940;48.734;9.112;2023-05-21T03:51:20;18.43;;;16.53;;
9524;SDS011;15940;48.734;9.112;2023-05-21T03:53:47;19.03;;;17.13;;
9524;SDS011;15940;48.734;9.112;2023-05-21T03:56:14;18.57;;;16.87;;
9524;SDS011;15940;48.734;9.112;2023-05-21T03:58:41;20.60;;;17.73;;
9524;SDS011;15940;48.734;9.112;2023-05-21T04:01:08;19.97;;;17.87;;
9524;SDS011;15940;48.734;9.112;2023-05-21T04:03:35;18.80;;;16.77;;
9524;SDS011;15940;48.734;9.112;2023-05-21T04:06:02;20.07;;;18.13;;
9524;SDS011;15940;48.734;9.112;2023-05-21T04:08:32;19.57;;;17.67;;
9524;SDS011;15940;48.734;9.112;2023-05-21T04:10:59;19.47;;;17.47;;
9524;SDS011;15940;48.734;9.112;2023-05-21T04:13:25;21.83;;;19.10;;
9524;SDS011;15940;48.734;9.112;2023-05-21T04:15:53;20.37;;;18.17;;
9524;SDS011;15940;48.734;9.112;2023-05-21T04:18:20;18.80;;;16.90;;
9524;SDS011;15940;48.734;9.112;2023-05-21T04:20:47;20.70;;;18.50;;
9524;SDS011;15940;48.734;9.112;2023-05-21T04:23:15;19.43;;;17.47;;
9524;SDS011;15940;48.734;9.112;2023-05-21T04:25:43;20.50;;;18.40;;
9524;SDS011;15940;48.734;9.112;2023-05-21T04:28:14;20.70;;;18.63;;
9524;SDS011;15940;48.734;9.112;2023-05-21T04:30:44;20.33;;;18.23;;
9524;SDS011;15940;48.734;9.112;2023-05-21T04:33:11;19.73;;;17.80;;
9524;SDS011;15940;48.734;9.112;2023-05-21T04:35:41;21.27;;;18.37;;
9524;SDS011;15940;48.734;9.112;2023-05-21T04:38:10;20.47;;;17.53;;
9524;SDS011;15940;48.734;9.112;2023-05-21T04:40:38;19.10;;;17.20;;
9524;SDS011;15940;48.734;9.112;2023-05-21T04:43:06;20.33;;;17.20;;
9524;SDS011;15940;48.734;9.112;2023-05-21T04:45:33;18.37;;;16.47;;
9524;SDS011;15940;48.734;9.112;2023-05-21T04:48:00;20.13;;;18.10;;
9524;SDS011;15940;48.734;9.112;2023-05-21T04:50:27;19.27;;;17.30;;
9524;SDS011;15940;48.734;9.112;2023-05-21T04:52:55;19.67;;;17.70;;
9524;SDS011;15940;48.734;9.112;2023-05-21T04:55:22;21.40;;;19.03;;
9524;SDS011;15940;48.734;9.112;2023-05-21T04:57:49;19.77;;;17.77;;
9524;SDS011;15940;48.734;9.112;2023-05-21T05:00:19;19.13;;;17.20;;
9524;SDS011;15940;48.734;9.112;2023-05-21T05:02:49;20.10;;;18.10;;
9524;SDS011;15940;48.734;9.112;2023-05-21T05:05:16;19.43;;;17.30;;
9524;SDS011;15940;48.734;9.112;2023-05-21T05:07:43;20.60;;;17.77;;
9524;SDS011;15940;48.734;9.112;2023-05-21T05:10:10;20.67;;;17.63;;
9524;SDS011;15940;48.734;9.112;2023-05-21T05:12:37;24.03;;;17.67;;
9524;SDS011;15940;48.734;9.112;2023-05-21T05:15:04;20.53;;;18.40;;
9524;SDS011;15940;48.734;9.112;2023-05-21T05:17:33;20.00;;;17.90;;
9524;SDS011;15940;48.734;9.112;2023-05-21T05:20:00;19.23;;;17.20;;
9524;SDS011;15940;48.734;9.112;2023-05-21T05:22:27;20.07;;;17.87;;
9524;SDS011;15940;48.734;9.112;2023-05-21T05:24:54;20.57;;;18.57;;
9524;SDS011;15940;48.734;9.112;2023-05-21T05:27:21;18.03;;;16.23;;
9524;SDS011;15940;48.734;9.112;2023-05-21T05:29:48;18.33;;;16.60;;
9524;SDS011;15940;48.734;9.112;2023-05-21T05:32:15;18.80;;;16.30;;
9524;SDS011;15940;48.734;9.112;2023-05-21T05:34:44;19.33;;;17.33;;
9524;SDS011;15940;48.734;9.112;2023-05-21T05:37:11;19.60;;;17.40;;
9524;SDS011;15940;48.734;9.112;2023-05-21T05:39:38;18.43;;;16.63;;
9524;SDS011;15940;48.734;9.112;2023-05-21T05:42:05;18.70;;;16.90;;
9524;SDS011;15940;48.734;9.112;2023-05-21T05:44:32;20.17;;;18.23;;
9524;SDS011;15940;48.734;9.112;2023-05-21T05:46:58;19.00;;;17.10;;
9524;SDS011;15940;48.734;9.112;2023-05-21T05:49:25;18.77;;;16.80;;
9524;SDS011;15940;48.734;9.112;2023-05-21T05:51:54;19.07;;;17.17;;
9524;SDS011;15940;48.734;9.112;2023-05-21T05:54:21;18.73;;;16.87;;
9524;SDS011;15940;48.734;9.112;2023-05-21T05:56:48;18.27;;;16.47;;
9524;SDS011;15940;48.734;9.112;2023-05-21T05:59:14;18.87;;;17.07;;
9524;SDS011;15940;48.734;9.112;2023-05-21T06:01:41;20.13;;;18.17;;
9524;SDS011;15940;48.734;9.112;2023-05-21T06:04:08;18.17;;;16.43;;
9524;SDS011;15940;48.734;9.112;2023-05-21T06:06:35;17.97;;;16.13;;
9524;SDS011;15940;48.734;9.112;2023-05-21T06:09:04;18.00;;;16.20;;
9524;SDS011;15940;48.734;9.112;2023-05-21T06:11:31;17.77;;;16.03;;
9524;SDS011;15940;48.734;9.112;2023-05-21T06:13:57;18.73;;;16.83;;
9524;SDS011;15940;48.734;9.112;2023-05-21T06:16:25;17.97;;;16.27;;
9524;SDS011;15940;48.734;9.112;2023-05-21T06:18:55;18.50;;;16.67;;
9524;SDS011;15940;48.734;9.112;2023-05-21T06:21:22;17.67;;;15.87;;
9524;SDS011;15940;48.734;9.112;2023-05-21T06:23:49;17.37;;;15.67;;
9524;SDS011;15940;48.734;9.112;2023-05-21T06:26:17;17.50;;;15.70;;
9524;SDS011;15940;48.734;9.112;2023-05-21T06:28:44;16.53;;;14.93;;
9524;SDS011;15940;48.734;9.112;2023-05-21T06:31:11;19.10;;;17.13;;
9524;SDS011;15940;48.734;9.112;2023-05-21T06:33:38;17.30;;;15.37;;
9524;SDS011;15940;48.734;9.112;2023-05-21T06:36:05;17.57;;;15.77;;
9524;SDS011;15940;48.734;9.112;2023-05-21T06:38:32;17.73;;;15.97;;
9524;SDS011;15940;48.734;9.112;2023-05-21T06:41:00;16.43;;;14.93;;
9524;SDS011;15940;48.734;9.112;2023-05-21T06:43:29;16.40;;;14.80;;
9524;SDS011;15940;48.734;9.112;2023-05-21T06:45:56;15.90;;;14.27;;
9524;SDS011;15940;48.734;9.112;2023-05-21T06:48:23;15.43;;;14.03;;
9524;SDS011;15940;48.734;9.112;2023-05-21T06:50:50;15.20;;;13.60;;
9524;SDS011;15940;48.734;9.112;2023-05-21T06:53:17;14.87;;;13.50;;
9524;SDS011;15940;48.734;9.112;2023-05-21T06:55:44;15.00;;;13.63;;
9524;SDS011;15940;48.734;9.112;2023-05-21T06:58:11;14.90;;;13.60;;
9524;SDS011;15940;48.734;9.112;2023-05-21T07:00:39;15.38;;;13.98;;
9524;SDS011;15940;48.734;9.112;2023-05-21T07:05:37;14.43;;;13.13;;
9524;SDS011;15940;48.734;9.112;2023-05-21T07:08:04;14.00;;;12.60;;
9524;SDS011;15940;48.734;9.112;2023-05-21T07:10:31;12.93;;;11.73;;
9524;SDS011;15940;48.734;9.112;2023-05-21T07:12:58;13.50;;;12.20;;
9524;SDS011;15940;48.734;9.112;2023-05-21T07:15:25;14.30;;;12.90;;
9524;SDS011;15940;48.734;9.112;2023-05-21T07:17:52;14.33;;;13.03;;
9524;SDS011;15940;48.734;9.112;2023-05-21T07:20:19;13.40;;;12.10;;
9524;SDS011;15940;48.734;9.112;2023-05-21T07:22:47;12.83;;;11.73;;
9524;SDS011;15940;48.734;9.112;2023-05-21T07:25:14;15.27;;;11.33;;
9524;SDS011;15940;48.734;9.112;2023-05-21T07:27:41;12.73;;;10.93;;
9524;SDS011;15940;48.734;9.112;2023-05-21T07:30:08;16.30;;;11.97;;
9524;SDS011;15940;48.734;9.112;2023-05-21T07:32:36;11.17;;;10.07;;
9524;SDS011;15940;48.734;9.112;2023-05-21T07:35:03;12.50;;;11.37;;
9524;SDS011;15940;48.734;9.112;2023-05-21T07:37:31;12.23;;;11.13;;
9524;SDS011;15940;48.734;9.112;2023-05-21T07:39:59;12.97;;;11.70;;
9524;SDS011;15940;48.734;9.112;2023-05-21T07:42:26;15.27;;;12.47;;
9524;SDS011;15940;48.734;9.112;2023-05-21T07:44:53;13.10;;;11.37;;
9524;SDS011;15940;48.734;9.112;2023-05-21T07:47:20;11.87;;;10.77;;
9524;SDS011;15940;48.734;9.112;2023-05-21T07:49:47;11.80;;;10.77;;
9524;SDS011;15940;48.734;9.112;2023-05-21T07:52:14;12.33;;;11.23;;
9524;SDS011;15940;48.734;9.112;2023-05-21T07:54:41;11.50;;;10.40;;
9524;SDS011;15940;48.734;9.112;2023-05-21T07:57:09;11.43;;;10.33;;
9524;SDS011;15940;48.734;9.112;2023-05-21T07:59:36;12.03;;;10.83;;
9524;SDS011;15940;48.734;9.112;2023-05-21T08:02:03;11.70;;;10.60;;
9524;SDS011;15940;48.734;9.112;2023-05-21T08:04:30;11.77;;;10.57;;
9524;SDS011;15940;48.734;9.112;2023-05-21T08:06:57;10.80;;;9.67;;
9524;SDS011;15940;48.734;9.112;2023-05-21T08:09:24;11.67;;;9.90;;
9524;SDS011;15940;48.734;9.112;2023-05-21T08:11:51;10.27;;;9.37;;
9524;SDS011;15940;48.734;9.112;2023-05-21T08:14:19;11.43;;;9.77;;
9524;SDS011;15940;48.734;9.112;2023-05-21T08:16:46;10.37;;;9.27;;
9524;SDS011;15940;48.734;9.112;2023-05-21T08:19:13;9.40;;;8.50;;
9524;SDS011;15940;48.734;9.112;2023-05-21T08:21:40;11.77;;;8.53;;
9524;SDS011;15940;48.734;9.112;2023-05-21T08:24:07;10.20;;;9.27;;
9524;SDS011;15940;48.734;9.112;2023-05-21T08:26:33;9.60;;;8.60;;
9524;SDS011;15940;48.734;9.112;2023-05-21T08:29:00;10.87;;;9.10;;
9524;SDS011;15940;48.734;9.112;2023-05-21T08:31:29;8.83;;;8.00;;
9524;SDS011;15940;48.734;9.112;2023-05-21T08:33:56;9.77;;;8.90;;
9524;SDS011;15940;48.734;9.112;2023-05-21T08:36:23;9.70;;;8.70;;
9524;SDS011;15940;48.734;9.112;2023-05-21T08:38:50;11.37;;;10.23;;
9524;SDS011;15940;48.734;9.112;2023-05-21T08:41:17;11.63;;;9.93;;
9524;SDS011;15940;48.734;9.112;2023-05-21T08:43:48;12.90;;;10.67;;
9524;SDS011;15940;48.734;9.112;2023-05-21T08:46:22;11.90;;;10.80;;
9524;SDS011;15940;48.734;9.112;2023-05-21T08:48:51;11.70;;;10.50;;
9524;SDS011;15940;48.734;9.112;2023-05-21T08:51:20;13.13;;;9.70;;
9524;SDS011;15940;48.734;9.112;2023-05-21T08:53:47;11.60;;;10.50;;
9524;SDS011;15940;48.734;9.112;2023-05-21T08:56:16;11.43;;;10.33;;
9524;SDS011;15940;48.734;9.112;2023-05-21T08:58:44;11.43;;;10.43;;
9524;SDS011;15940;48.734;9.112;2023-05-21T09:01:12;12.20;;;10.73;;
9524;SDS011;15940;48.734;9.112;2023-05-21T09:03:39;10.73;;;9.83;;
9524;SDS011;15940;48.734;9.112;2023-05-21T09:06:10;11.53;;;10.43;;
9524;SDS011;15940;48.734;9.112;2023-05-21T09:08:41;10.83;;;9.83;;
9524;SDS011;15940;48.734;9.112;2023-05-21T09:11:10;11.07;;;10.10;;
9524;SDS011;15940;48.734;9.112;2023-05-21T09:13:37;11.73;;;10.73;;
9524;SDS011;15940;48.734;9.112;2023-05-21T09:16:06;12.37;;;10.63;;
9524;SDS011;15940;48.734;9.112;2023-05-21T09:18:35;11.53;;;10.43;;
9524;SDS011;15940;48.734;9.112;2023-05-21T09:21:22;11.20;;;10.10;;
9524;SDS011;15940;48.734;9.112;2023-05-21T09:23:53;11.00;;;10.03;;
9524;SDS011;15940;48.734;9.112;2023-05-21T09:26:22;12.17;;;11.00;;
9524;SDS011;15940;48.734;9.112;2023-05-21T09:28:49;11.73;;;10.73;;
9524;SDS011;15940;48.734;9.112;2023-05-21T09:31:16;12.17;;;10.97;;
9524;SDS011;15940;48.734;9.112;2023-05-21T09:33:46;12.77;;;11.63;;
9524;SDS011;15940;48.734;9.112;2023-05-21T09:36:16;11.00;;;10.00;;
9524;SDS011;15940;48.734;9.112;2023-05-21T09:38:44;11.83;;;10.73;;
9524;SDS011;15940;48.734;9.112;2023-05-21T09:41:12;10.67;;;9.63;;
9524;SDS011;15940;48.734;9.112;2023-05-21T09:43:40;12.70;;;11.37;;
9524;SDS011;15940;48.734;9.112;2023-05-21T09:46:08;10.53;;;9.63;;
9524;SDS011;15940;48.734;9.112;2023-05-21T09:48:36;12.67;;;10.90;;
9524;SDS011;15940;48.734;9.112;2023-05-21T09:51:11;11.20;;;10.30;;
9524;SDS011;15940;48.734;9.112;2023-05-21T09:53:42;11.30;;;10.20;;
9524;SDS011;15940;48.734;9.112;2023-05-21T09:56:13;12.53;;;11.43;;
9524;SDS011;15940;48.734;9.112;2023-05-21T09:58:40;12.57;;;11.37;;
9524;SDS011;15940;48.734;9.112;2023-05-21T10:01:09;11.47;;;10.37;;
9524;SDS011;15940;48.734;9.112;2023-05-21T10:03:37;14.77;;;10.93;;
9524;SDS011;15940;48.734;9.112;2023-05-21T10:06:05;11.67;;;10.67;;
9524;SDS011;15940;48.734;9.112;2023-05-21T10:08:35;11.07;;;10.07;;
9524;SDS011;15940;48.734;9.112;2023-05-21T10:11:10;10.33;;;9.50;;
9524;SDS011;15940;48.734;9.112;2023-05-21T10:13:38;11.60;;;10.60;;
9524;SDS011;15940;48.734;9.112;2023-05-21T10:16:10;10.53;;;9.63;;
9524;SDS011;15940;48.734;9.112;2023-05-21T10:18:37;13.33;;;11.17;;
9524;SDS011;15940;48.734;9.112;2023-05-21T10:21:05;11.03;;;10.03;;
9524;SDS011;15940;48.734;9.112;2023-05-21T10:23:35;10.30;;;9.37;;
9524;SDS011;15940;48.734;9.112;2023-05-21T10:26:03;10.73;;;9.83;;
9524;SDS011;15940;48.734;9.112;2023-05-21T10:28:32;11.27;;;10.17;;
9524;SDS011;15940;48.734;9.112;2023-05-21T10:30:59;11.00;;;9.90;;
9524;SDS011;15940;48.734;9.112;2023-05-21T10:33:27;10.97;;;9.87;;
9524;SDS011;15940;48.734;9.112;2023-05-21T10:35:55;11.17;;;10.17;;
9524;SDS011;15940;48.734;9.112;2023-05-21T10:38:24;10.90;;;9.90;;
9524;SDS011;15940;48.734;9.112;2023-05-21T10:40:54;10.73;;;9.83;;
9524;SDS011;15940;48.734;9.112;2023-05-21T10:43:25;10.33;;;9.23;;
9524;SDS011;15940;48.734;9.112;2023-05-21T10:46:44;10.87;;;9.80;;
9524;SDS011;15940;48.734;9.112;2023-05-21T10:49:49;9.07;;;8.27;;
9524;SDS011;15940;48.734;9.112;2023-05-21T10:52:33;9.73;;;8.47;;
9524;SDS011;15940;48.734;9.112;2023-05-21T10:55:34;9.07;;;8.27;;
9524;SDS011;15940;48.734;9.112;2023-05-21T10:58:21;9.50;;;8.70;;
9524;SDS011;15940;48.734;9.112;2023-05-21T11:01:07;8.27;;;7.57;;
9524;SDS011;15940;48.734;9.112;2023-05-21T11:03:36;8.70;;;7.97;;
9524;SDS011;15940;48.734;9.112;2023-05-21T11:06:03;8.93;;;8.17;;
9524;SDS011;15940;48.734;9.112;2023-05-21T11:08:32;8.47;;;7.60;;
9524;SDS011;15940;48.734;9.112;2023-05-21T11:11:00;9.80;;;7.60;;
9524;SDS011;15940;48.734;9.112;2023-05-21T11:13:43;8.73;;;7.93;;
9524;SDS011;15940;48.734;9.112;2023-05-21T11:16:13;8.90;;;8.07;;
9524;SDS011;15940;48.734;9.112;2023-05-21T11:18:55;8.33;;;7.63;;
9524;SDS011;15940;48.734;9.112;2023-05-21T11:21:30;8.90;;;8.10;;
9524;SDS011;15940;48.734;9.112;2023-05-21T11:24:03;8.73;;;7.37;;
9524;SDS011;15940;48.734;9.112;2023-05-21T11:29:34;9.33;;;8.43;;
9524;SDS011;15940;48.734;9.112;2023-05-21T11:32:06;8.60;;;7.83;;
9524;SDS011;15940;48.734;9.112;2023-05-21T11:34:38;8.37;;;7.63;;
9524;SDS011;15940;48.734;9.112;2023-05-21T11:42:50;8.23;;;7.47;;
9524;SDS011;15940;48.734;9.112;2023-05-21T11:45:20;10.27;;;8.27;;
9524;SDS011;15940;48.734;9.112;2023-05-21T11:47:48;9.43;;;8.33;;
9524;SDS011;15940;48.734;9.112;2023-05-21T11:50:16;9.27;;;8.37;;
9524;SDS011;15940;48.734;9.112;2023-05-21T11:52:44;10.43;;;8.43;;
9524;SDS011;15940;48.734;9.112;2023-05-21T11:55:11;8.97;;;7.87;;
9524;SDS011;15940;48.734;9.112;2023-05-21T11:57:40;8.80;;;8.00;;
9524;SDS011;15940;48.734;9.112;2023-05-21T12:00:12;8.63;;;7.77;;
9524;SDS011;15940;48.734;9.112;2023-05-21T12:02:46;9.10;;;8.20;;
9524;SDS011;15940;48.734;9.112;2023-05-21T12:05:19;8.17;;;7.47;;
9524;SDS011;15940;48.734;9.112;2023-05-21T12:07:47;8.83;;;8.07;;
9524;SDS011;15940;48.734;9.112;2023-05-21T12:10:15;9.33;;;8.23;;
9524;SDS011;15940;48.734;9.112;2023-05-21T12:12:42;8.40;;;7.60;;
9524;SDS011;15940;48.734;9.112;2023-05-21T12:15:09;8.90;;;8.20;;
9524;SDS011;15940;48.734;9.112;2023-05-21T12:17:37;7.83;;;7.17;;
9524;SDS011;15940;48.734;9.112;2023-05-21T12:20:07;8.37;;;7.67;;
9524;SDS011;15940;48.734;9.112;2023-05-21T12:22:34;8.77;;;7.97;;
9524;SDS011;15940;48.734;9.112;2023-05-21T12:25:08;7.47;;;6.87;;
9524;SDS011;15940;48.734;9.112;2023-05-21T12:27:36;8.37;;;7.67;;
9524;SDS011;15940;48.734;9.112;2023-05-21T12:30:03;7.73;;;7.00;;
9524;SDS011;15940;48.734;9.112;2023-05-21T12:32:32;8.27;;;7.47;;
9524;SDS011;15940;48.734;9.112;2023-05-21T12:34:59;7.73;;;7.20;;
9524;SDS011;15940;48.734;9.112;2023-05-21T12:37:29;7.90;;;7.20;;
9524;SDS011;15940;48.734;9.112;2023-05-21T12:39:57;7.90;;;7.20;;
9524;SDS011;15940;48.734;9.112;2023-05-21T12:42:25;8.57;;;7.77;;
9524;SDS011;15940;48.734;9.112;2023-05-21T12:44:54;7.63;;;6.97;;
9524;SDS011;15940;48.734;9.112;2023-05-21T12:47:22;7.30;;;6.70;;
9524;SDS011;15940;48.734;9.112;2023-05-21T12:49:52;7.70;;;6.97;;
9524;SDS011;15940;48.734;9.112;2023-05-21T12:52:22;7.87;;;7.10;;
9524;SDS011;15940;48.734;9.112;2023-05-21T12:54:51;8.83;;;8.00;;
9524;SDS011;15940;48.734;9.112;2023-05-21T12:57:20;7.73;;;7.13;;
9524;SDS011;15940;48.734;9.112;2023-05-21T12:59:49;8.20;;;7.40;;
9524;SDS011;15940;48.734;9.112;2023-05-21T13:02:21;8.00;;;7.30;;
9524;SDS011;15940;48.734;9.112;2023-05-21T13:04:53;7.53;;;6.83;;
9524;SDS011;15940;48.734;9.112;2023-05-21T13:07:22;7.17;;;6.47;;
9524;SDS011;15940;48.734;9.112;2023-05-21T13:09:51;7.93;;;7.17;;
9524;SDS011;15940;48.734;9.112;2023-05-21T13:12:19;7.40;;;6.73;;
9524;SDS011;15940;48.734;9.112;2023-05-21T13:14:47;7.10;;;6.50;;
9524;SDS011;15940;48.734;9.112;2023-05-21T13:17:15;7.47;;;6.70;;
9524;SDS011;15940;48.734;9.112;2023-05-21T13:19:43;7.80;;;6.33;;
9524;SDS011;15940;48.734;9.112;2023-05-21T13:22:33;7.30;;;6.60;;
9524;SDS011;15940;48.734;9.112;2023-05-21T13:25:04;7.47;;;6.43;;
9524;SDS011;15940;48.734;9.112;2023-05-21T13:27:33;6.63;;;6.13;;
9524;SDS011;15940;48.734;9.112;2023-05-21T13:30:00;7.53;;;6.83;;
9524;SDS011;15940;48.734;9.112;2023-05-21T13:32:27;6.30;;;5.80;;
9524;SDS011;15940;48.734;9.112;2023-05-21T13:34:54;8.17;;;6.17;;
9524;SDS011;15940;48.734;9.112;2023-05-21T13:37:21;6.30;;;5.80;;
9524;SDS011;15940;48.734;9.112;2023-05-21T13:39:48;6.47;;;5.80;;
9524;SDS011;15940;48.734;9.112;2023-05-21T13:42:16;6.53;;;5.93;;
9524;SDS011;15940;48.734;9.112;2023-05-21T13:44:43;6.20;;;5.70;;
9524;SDS011;15940;48.734;9.112;2023-05-21T13:47:10;6.07;;;5.57;;
9524;SDS011;15940;48.734;9.112;2023-05-21T13:49:38;6.63;;;6.07;;
9524;SDS011;15940;48.734;9.112;2023-05-21T13:52:05;5.27;;;4.87;;
9524;SDS011;15940;48.734;9.112;2023-05-21T13:54:33;5.70;;;5.20;;
9524;SDS011;15940;48.734;9.112;2023-05-21T13:57:01;5.10;;;4.80;;
9524;SDS011;15940;48.734;9.112;2023-05-21T13:59:29;5.73;;;5.23;;
9524;SDS011;15940;48.734;9.112;2023-05-21T14:01:56;6.40;;;5.80;;
9524;SDS011;15940;48.734;9.112;2023-05-21T14:04:23;6.23;;;5.73;;
9524;SDS011;15940;48.734;9.112;2023-05-21T14:06:50;8.17;;;5.33;;
9524;SDS011;15940;48.734;9.112;2023-05-21T14:09:17;7.33;;;5.80;;
9524;SDS011;15940;48.734;9.112;2023-05-21T14:11:45;6.43;;;5.93;;
9524;SDS011;15940;48.734;9.112;2023-05-21T14:14:12;6.20;;;5.60;;
9524;SDS011;15940;48.734;9.112;2023-05-21T14:16:44;5.60;;;5.20;;
9524;SDS011;15940;48.734;9.112;2023-05-21T14:19:11;5.90;;;5.20;;
9524;SDS011;15940;48.734;9.112;2023-05-21T14:21:39;5.57;;;4.93;;
9524;SDS011;15940;48.734;9.112;2023-05-21T14:24:06;6.00;;;5.50;;
9524;SDS011;15940;48.734;9.112;2023-05-21T14:26:33;5.70;;;5.20;;
9524;SDS011;15940;48.734;9.112;2023-05-21T14:29:01;5.97;;;5.40;;
9524;SDS011;15940;48.734;9.112;2023-05-21T14:31:28;7.13;;;5.40;;
9524;SDS011;15940;48.734;9.112;2023-05-21T14:33:56;5.30;;;4.87;;
9524;SDS011;15940;48.734;9.112;2023-05-21T14:36:23;5.47;;;4.90;;
9524;SDS011;15940;48.734;9.112;2023-05-21T14:38:50;5.80;;;5.30;;
9524;SDS011;15940;48.734;9.112;2023-05-21T14:41:17;5.37;;;4.90;;
9524;SDS011;15940;48.734;9.112;2023-05-21T14:43:45;5.80;;;5.20;;
9524;SDS011;15940;48.734;9.112;2023-05-21T14:46:12;5.47;;;5.07;;
9524;SDS011;15940;48.734;9.112;2023-05-21T14:48:39;5.77;;;4.67;;
9524;SDS011;15940;48.734;9.112;2023-05-21T14:51:08;8.53;;;5.20;;
9524;SDS011;15940;48.734;9.112;2023-05-21T14:53:34;6.47;;;5.23;;
9524;SDS011;15940;48.734;9.112;2023-05-21T14:56:01;5.63;;;5.03;;
9524;SDS011;15940;48.734;9.112;2023-05-21T14:58:29;6.20;;;5.70;;
9524;SDS011;15940;48.734;9.112;2023-05-21T15:00:56;6.07;;;4.90;;
9524;SDS011;15940;48.734;9.112;2023-05-21T15:03:22;5.77;;;4.77;;
9524;SDS011;15940;48.734;9.112;2023-05-21T15:05:49;5.10;;;4.70;;
9524;SDS011;15940;48.734;9.112;2023-05-21T15:08:18;5.43;;;4.93;;
9524;SDS011;15940;48.734;9.112;2023-05-21T15:10:45;5.50;;;5.00;;
9524;SDS011;15940;48.734;9.112;2023-05-21T15:13:11;6.60;;;5.43;;
9524;SDS011;15940;48.734;9.112;2023-05-21T15:15:38;5.93;;;5.40;;